sensor_id;sensor_type;location;lat;lon;timestamp;temperature;humidity
19000;DHT22;9633;50.980;13.850;2022-07-06T00:00:43;14.90;99.90
19000;DHT22;9633;50.980;13.850;2022-07-06T00:02:16;14.80;99.90
19000;DHT22;9633;50.980;13.850;2022-07-06T00:03:49;14.90;99.90
19000;DHT22;9633;50.980;13.850;2022-07-06T00:05:26;14.90;99.90
19000;DHT22;9633;50.980;13.850;2022-07-06T00:06:59;14.90;99.90
19000;DHT22;9633;50.980;13.850;2022-07-06T00:08:32;14.90;99.90
19000;DHT22;9633;50.980;13.850;2022-07-06T00:10:07;14.90;99.90
19000;DHT22;9633;50.980;13.850;2022-07-06T00:11:41;14.90;99.90
19000;DHT22;9633;50.980;13.850;2022-07-06T00:13:14;14.90;99.90
19000;DHT22;9633;50.980;13.850;2022-07-06T00:14:47;15.00;99.90
19000;DHT22;9633;50.980;13.850;2022-07-06T00:16:20;15.00;99.90
19000;DHT22;9633;50.980;13.850;2022-07-06T00:17:52;15.00;99.90
19000;DHT22;9633;50.980;13.850;2022-07-06T00:19:25;15.00;99.90
19000;DHT22;9633;50.980;13.850;2022-07-06T00:20:58;15.00;99.90
19000;DHT22;9633;50.980;13.850;2022-07-06T00:22:31;14.90;99.90
19000;DHT22;9633;50.980;13.850;2022-07-06T00:24:04;14.90;99.90
19000;DHT22;9633;50.980;13.850;2022-07-06T00:25:38;14.90;99.90
19000;DHT22;9633;50.980;13.850;2022-07-06T00:27:11;14.90;99.90
19000;DHT22;9633;50.980;13.850;2022-07-06T00:28:44;14.90;99.90
19000;DHT22;9633;50.980;13.850;2022-07-06T00:30:16;14.80;99.90
19000;DHT22;9633;50.980;13.850;2022-07-06T00:31:49;14.80;99.90
19000;DHT22;9633;50.980;13.850;2022-07-06T00:33:23;14.80;99.90
19000;DHT22;9633;50.980;13.850;2022-07-06T00:34:56;14.80;99.90
19000;DHT22;9633;50.980;13.850;2022-07-06T00:36:29;14.80;99.90
19000;DHT22;9633;50.980;13.850;2022-07-06T00:38:02;14.80;99.90
19000;DHT22;9633;50.980;13.850;2022-07-06T00:39:35;14.70;99.90
19000;DHT22;9633;50.980;13.850;2022-07-06T00:41:10;14.80;99.90
19000;DHT22;9633;50.980;13.850;2022-07-06T00:42:46;14.80;99.90
19000;DHT22;9633;50.980;13.850;2022-07-06T00:44:19;14.80;99.90
19000;DHT22;9633;50.980;13.850;2022-07-06T00:45:52;14.80;99.90
19000;DHT22;9633;50.980;13.850;2022-07-06T00:47:26;14.80;99.90
19000;DHT22;9633;50.980;13.850;2022-07-06T00:48:59;14.80;99.90
19000;DHT22;9633;50.980;13.850;2022-07-06T00:50:33;14.80;99.90
19000;DHT22;9633;50.980;13.850;2022-07-06T00:52:06;14.80;99.90
19000;DHT22;9633;50.980;13.850;2022-07-06T00:53:40;14.80;99.90
19000;DHT22;9633;50.980;13.850;2022-07-06T00:55:16;14.80;99.90
19000;DHT22;9633;50.980;13.850;2022-07-06T00:56:51;14.80;99.90
19000;DHT22;9633;50.980;13.850;2022-07-06T00:58:25;14.80;99.90
19000;DHT22;9633;50.980;13.850;2022-07-06T00:59:59;14.80;99.90
19000;DHT22;9633;50.980;13.850;2022-07-06T01:01:32;14.80;99.90
19000;DHT22;9633;50.980;13.850;2022-07-06T01:03:05;14.80;99.90
19000;DHT22;9633;50.980;13.850;2022-07-06T01:04:38;14.80;99.90
19000;DHT22;9633;50.980;13.850;2022-07-06T01:06:10;14.70;99.90
19000;DHT22;9633;50.980;13.850;2022-07-06T01:07:45;14.80;99.90
19000;DHT22;9633;50.980;13.850;2022-07-06T01:09:19;14.80;99.90
19000;DHT22;9633;50.980;13.850;2022-07-06T01:10:53;14.80;99.90
19000;DHT22;9633;50.980;13.850;2022-07-06T01:12:28;14.80;99.90
19000;DHT22;9633;50.980;13.850;2022-07-06T01:14:01;14.80;99.90
19000;DHT22;9633;50.980;13.850;2022-07-06T01:15:35;14.80;99.90
19000;DHT22;9633;50.980;13.850;2022-07-06T01:17:08;14.80;99.90
19000;DHT22;9633;50.980;13.850;2022-07-06T01:18:42;14.80;99.90
19000;DHT22;9633;50.980;13.850;2022-07-06T01:20:17;14.80;99.90
19000;DHT22;9633;50.980;13.850;2022-07-06T01:21:51;14.80;99.90
19000;DHT22;9633;50.980;13.850;2022-07-06T01:23:24;14.80;99.90
19000;DHT22;9633;50.980;13.850;2022-07-06T01:24:56;14.80;99.90
19000;DHT22;9633;50.980;13.850;2022-07-06T01:26:30;14.80;99.90
19000;DHT22;9633;50.980;13.850;2022-07-06T01:28:04;14.70;99.90
19000;DHT22;9633;50.980;13.850;2022-07-06T01:29:38;14.80;99.90
19000;DHT22;9633;50.980;13.850;2022-07-06T01:31:18;14.70;99.90
19000;DHT22;9633;50.980;13.850;2022-07-06T01:32:52;14.80;99.90
19000;DHT22;9633;50.980;13.850;2022-07-06T01:34:25;14.80;99.90
19000;DHT22;9633;50.980;13.850;2022-07-06T01:36:00;14.80;99.90
19000;DHT22;9633;50.980;13.850;2022-07-06T01:37:33;14.80;99.90
19000;DHT22;9633;50.980;13.850;2022-07-06T01:39:05;14.80;99.90
19000;DHT22;9633;50.980;13.850;2022-07-06T01:40:41;14.80;99.90
19000;DHT22;9633;50.980;13.850;2022-07-06T01:42:14;14.80;99.90
19000;DHT22;9633;50.980;13.850;2022-07-06T01:43:49;14.80;99.90
19000;DHT22;9633;50.980;13.850;2022-07-06T01:45:23;14.80;99.90
19000;DHT22;9633;50.980;13.850;2022-07-06T01:46:57;14.90;99.90
19000;DHT22;9633;50.980;13.850;2022-07-06T01:48:30;14.90;99.90
19000;DHT22;9633;50.980;13.850;2022-07-06T01:50:06;14.90;99.90
19000;DHT22;9633;50.980;13.850;2022-07-06T01:51:46;14.80;99.90
19000;DHT22;9633;50.980;13.850;2022-07-06T01:53:19;14.80;99.90
19000;DHT22;9633;50.980;13.850;2022-07-06T01:54:52;14.90;99.90
19000;DHT22;9633;50.980;13.850;2022-07-06T01:56:25;14.80;99.90
19000;DHT22;9633;50.980;13.850;2022-07-06T01:58:02;14.90;99.90
19000;DHT22;9633;50.980;13.850;2022-07-06T01:59:36;14.80;99.90
19000;DHT22;9633;50.980;13.850;2022-07-06T02:01:11;14.80;99.90
19000;DHT22;9633;50.980;13.850;2022-07-06T02:02:44;14.80;99.90
19000;DHT22;9633;50.980;13.850;2022-07-06T02:04:17;14.70;99.90
19000;DHT22;9633;50.980;13.850;2022-07-06T02:05:50;14.70;99.90
19000;DHT22;9633;50.980;13.850;2022-07-06T02:07:26;14.80;99.90
19000;DHT22;9633;50.980;13.850;2022-07-06T02:08:59;14.80;99.90
19000;DHT22;9633;50.980;13.850;2022-07-06T02:10:32;14.80;99.90
19000;DHT22;9633;50.980;13.850;2022-07-06T02:12:06;14.80;99.90
19000;DHT22;9633;50.980;13.850;2022-07-06T02:13:40;14.80;99.90
19000;DHT22;9633;50.980;13.850;2022-07-06T02:15:15;14.80;99.90
19000;DHT22;9633;50.980;13.850;2022-07-06T02:16:48;14.80;99.90
19000;DHT22;9633;50.980;13.850;2022-07-06T02:18:22;14.70;99.90
19000;DHT22;9633;50.980;13.850;2022-07-06T02:19:56;14.70;99.90
19000;DHT22;9633;50.980;13.850;2022-07-06T02:21:30;14.60;99.90
19000;DHT22;9633;50.980;13.850;2022-07-06T02:23:04;14.60;99.90
19000;DHT22;9633;50.980;13.850;2022-07-06T02:24:38;14.50;99.90
19000;DHT22;9633;50.980;13.850;2022-07-06T02:26:11;14.40;99.90
19000;DHT22;9633;50.980;13.850;2022-07-06T02:27:44;14.30;99.90
19000;DHT22;9633;50.980;13.850;2022-07-06T02:29:17;14.30;99.90
19000;DHT22;9633;50.980;13.850;2022-07-06T02:30:51;14.30;99.90
19000;DHT22;9633;50.980;13.850;2022-07-06T02:32:25;14.30;99.90
19000;DHT22;9633;50.980;13.850;2022-07-06T02:33:58;14.30;99.90
19000;DHT22;9633;50.980;13.850;2022-07-06T02:35:31;14.30;99.90
19000;DHT22;9633;50.980;13.850;2022-07-06T02:37:05;14.20;99.90
19000;DHT22;9633;50.980;13.850;2022-07-06T02:38:39;14.10;99.90
19000;DHT22;9633;50.980;13.850;2022-07-06T02:40:13;14.10;99.90
19000;DHT22;9633;50.980;13.850;2022-07-06T02:41:45;14.10;99.90
19000;DHT22;9633;50.980;13.850;2022-07-06T02:43:18;14.10;99.90
19000;DHT22;9633;50.980;13.850;2022-07-06T02:44:52;14.00;99.90
19000;DHT22;9633;50.980;13.850;2022-07-06T02:46:25;14.00;99.90
19000;DHT22;9633;50.980;13.850;2022-07-06T02:47:59;13.90;99.90
19000;DHT22;9633;50.980;13.850;2022-07-06T02:49:33;13.80;99.90
19000;DHT22;9633;50.980;13.850;2022-07-06T02:51:06;13.70;99.90
19000;DHT22;9633;50.980;13.850;2022-07-06T02:52:39;13.60;99.90
19000;DHT22;9633;50.980;13.850;2022-07-06T02:54:15;13.70;99.90
19000;DHT22;9633;50.980;13.850;2022-07-06T02:55:48;13.70;99.90
19000;DHT22;9633;50.980;13.850;2022-07-06T02:57:22;13.70;99.90
19000;DHT22;9633;50.980;13.850;2022-07-06T02:58:55;13.80;99.90
19000;DHT22;9633;50.980;13.850;2022-07-06T03:00:28;13.80;99.90
19000;DHT22;9633;50.980;13.850;2022-07-06T03:02:02;13.90;99.90
19000;DHT22;9633;50.980;13.850;2022-07-06T03:03:35;13.90;99.90
19000;DHT22;9633;50.980;13.850;2022-07-06T03:05:10;14.00;99.90
19000;DHT22;9633;50.980;13.850;2022-07-06T03:06:43;14.00;99.90
19000;DHT22;9633;50.980;13.850;2022-07-06T03:08:17;14.00;99.90
19000;DHT22;9633;50.980;13.850;2022-07-06T03:09:52;14.10;99.90
19000;DHT22;9633;50.980;13.850;2022-07-06T03:11:25;14.10;99.90
19000;DHT22;9633;50.980;13.850;2022-07-06T03:12:58;14.10;99.90
19000;DHT22;9633;50.980;13.850;2022-07-06T03:14:32;14.10;99.90
19000;DHT22;9633;50.980;13.850;2022-07-06T03:16:05;14.10;99.90
19000;DHT22;9633;50.980;13.850;2022-07-06T03:17:39;14.00;99.90
19000;DHT22;9633;50.980;13.850;2022-07-06T03:19:12;14.00;99.90
19000;DHT22;9633;50.980;13.850;2022-07-06T03:20:46;14.00;99.90
19000;DHT22;9633;50.980;13.850;2022-07-06T03:22:21;14.00;99.90
19000;DHT22;9633;50.980;13.850;2022-07-06T03:23:55;14.00;99.90
19000;DHT22;9633;50.980;13.850;2022-07-06T03:25:30;14.10;99.90
19000;DHT22;9633;50.980;13.850;2022-07-06T03:27:04;14.10;99.90
19000;DHT22;9633;50.980;13.850;2022-07-06T03:28:38;14.10;99.90
19000;DHT22;9633;50.980;13.850;2022-07-06T03:30:11;14.10;99.90
19000;DHT22;9633;50.980;13.850;2022-07-06T03:31:50;14.10;99.90
19000;DHT22;9633;50.980;13.850;2022-07-06T03:33:23;14.20;99.90
19000;DHT22;9633;50.980;13.850;2022-07-06T03:34:57;14.20;99.90
19000;DHT22;9633;50.980;13.850;2022-07-06T03:36:30;14.10;99.90
19000;DHT22;9633;50.980;13.850;2022-07-06T03:38:10;14.10;99.90
19000;DHT22;9633;50.980;13.850;2022-07-06T03:39:44;14.00;99.90
19000;DHT22;9633;50.980;13.850;2022-07-06T03:41:19;14.00;99.90
19000;DHT22;9633;50.980;13.850;2022-07-06T03:42:53;13.90;99.90
19000;DHT22;9633;50.980;13.850;2022-07-06T03:44:25;13.90;99.90
19000;DHT22;9633;50.980;13.850;2022-07-06T03:45:59;14.00;99.90
19000;DHT22;9633;50.980;13.850;2022-07-06T03:47:32;14.00;99.90
19000;DHT22;9633;50.980;13.850;2022-07-06T03:49:06;14.00;99.90
19000;DHT22;9633;50.980;13.850;2022-07-06T03:50:39;14.00;99.90
19000;DHT22;9633;50.980;13.850;2022-07-06T03:52:13;14.10;99.90
19000;DHT22;9633;50.980;13.850;2022-07-06T03:53:53;14.20;99.90
19000;DHT22;9633;50.980;13.850;2022-07-06T03:55:26;14.30;99.90
19000;DHT22;9633;50.980;13.850;2022-07-06T03:57:05;14.40;99.90
19000;DHT22;9633;50.980;13.850;2022-07-06T03:58:38;14.50;99.90
19000;DHT22;9633;50.980;13.850;2022-07-06T04:00:12;14.50;99.90
19000;DHT22;9633;50.980;13.850;2022-07-06T04:01:47;14.60;99.90
19000;DHT22;9633;50.980;13.850;2022-07-06T04:03:22;14.60;99.90
19000;DHT22;9633;50.980;13.850;2022-07-06T04:04:55;14.60;99.90
19000;DHT22;9633;50.980;13.850;2022-07-06T04:06:28;14.60;99.90
19000;DHT22;9633;50.980;13.850;2022-07-06T04:08:02;14.60;99.90
19000;DHT22;9633;50.980;13.850;2022-07-06T04:09:44;14.60;99.90
19000;DHT22;9633;50.980;13.850;2022-07-06T04:11:17;14.70;99.90
19000;DHT22;9633;50.980;13.850;2022-07-06T04:12:51;14.70;99.90
19000;DHT22;9633;50.980;13.850;2022-07-06T04:14:24;14.80;99.90
19000;DHT22;9633;50.980;13.850;2022-07-06T04:16:00;14.90;99.90
19000;DHT22;9633;50.980;13.850;2022-07-06T04:17:34;15.00;99.90
19000;DHT22;9633;50.980;13.850;2022-07-06T04:19:29;14.90;99.90
19000;DHT22;9633;50.980;13.850;2022-07-06T04:21:02;14.90;99.90
19000;DHT22;9633;50.980;13.850;2022-07-06T04:22:38;15.00;99.90
19000;DHT22;9633;50.980;13.850;2022-07-06T04:24:11;15.10;99.90
19000;DHT22;9633;50.980;13.850;2022-07-06T04:25:45;15.10;99.90
19000;DHT22;9633;50.980;13.850;2022-07-06T04:27:19;15.30;99.90
19000;DHT22;9633;50.980;13.850;2022-07-06T04:28:54;15.40;99.90
19000;DHT22;9633;50.980;13.850;2022-07-06T04:30:28;15.50;99.90
19000;DHT22;9633;50.980;13.850;2022-07-06T04:32:01;15.60;99.90
19000;DHT22;9633;50.980;13.850;2022-07-06T04:33:34;15.60;99.90
19000;DHT22;9633;50.980;13.850;2022-07-06T04:35:09;15.60;99.90
19000;DHT22;9633;50.980;13.850;2022-07-06T04:36:42;15.70;99.90
19000;DHT22;9633;50.980;13.850;2022-07-06T04:38:15;15.80;99.90
19000;DHT22;9633;50.980;13.850;2022-07-06T04:39:49;15.90;99.90
19000;DHT22;9633;50.980;13.850;2022-07-06T04:41:21;15.90;99.90
19000;DHT22;9633;50.980;13.850;2022-07-06T04:42:56;15.90;99.90
19000;DHT22;9633;50.980;13.850;2022-07-06T04:44:32;15.80;99.90
19000;DHT22;9633;50.980;13.850;2022-07-06T04:46:05;15.80;99.90
19000;DHT22;9633;50.980;13.850;2022-07-06T04:47:41;15.70;99.90
19000;DHT22;9633;50.980;13.850;2022-07-06T04:49:17;15.70;99.90
19000;DHT22;9633;50.980;13.850;2022-07-06T04:50:51;15.80;99.90
19000;DHT22;9633;50.980;13.850;2022-07-06T04:52:29;15.80;99.90
19000;DHT22;9633;50.980;13.850;2022-07-06T04:54:03;15.80;99.90
19000;DHT22;9633;50.980;13.850;2022-07-06T04:55:38;15.90;99.90
19000;DHT22;9633;50.980;13.850;2022-07-06T04:57:12;15.80;99.90
19000;DHT22;9633;50.980;13.850;2022-07-06T04:58:46;15.90;99.90
19000;DHT22;9633;50.980;13.850;2022-07-06T05:00:24;16.00;99.90
19000;DHT22;9633;50.980;13.850;2022-07-06T05:01:58;16.00;99.90
19000;DHT22;9633;50.980;13.850;2022-07-06T05:03:33;16.10;99.90
19000;DHT22;9633;50.980;13.850;2022-07-06T05:05:08;16.10;99.90
19000;DHT22;9633;50.980;13.850;2022-07-06T05:06:42;16.10;99.90
19000;DHT22;9633;50.980;13.850;2022-07-06T05:08:15;16.10;99.90
19000;DHT22;9633;50.980;13.850;2022-07-06T05:09:50;16.10;99.90
19000;DHT22;9633;50.980;13.850;2022-07-06T05:11:24;16.10;99.90
19000;DHT22;9633;50.980;13.850;2022-07-06T05:12:58;16.10;99.90
19000;DHT22;9633;50.980;13.850;2022-07-06T05:14:32;16.20;99.90
19000;DHT22;9633;50.980;13.850;2022-07-06T05:16:08;16.20;99.90
19000;DHT22;9633;50.980;13.850;2022-07-06T05:17:42;16.30;99.90
19000;DHT22;9633;50.980;13.850;2022-07-06T05:19:16;16.40;99.90
19000;DHT22;9633;50.980;13.850;2022-07-06T05:20:50;16.50;99.90
19000;DHT22;9633;50.980;13.850;2022-07-06T05:22:24;16.60;99.90
19000;DHT22;9633;50.980;13.850;2022-07-06T05:23:58;16.70;99.90
19000;DHT22;9633;50.980;13.850;2022-07-06T05:25:31;16.80;99.90
19000;DHT22;9633;50.980;13.850;2022-07-06T05:27:06;16.90;99.90
19000;DHT22;9633;50.980;13.850;2022-07-06T05:28:39;16.80;99.90
19000;DHT22;9633;50.980;13.850;2022-07-06T05:30:16;16.90;99.90
19000;DHT22;9633;50.980;13.850;2022-07-06T05:31:51;17.00;99.90
19000;DHT22;9633;50.980;13.850;2022-07-06T05:33:27;17.10;99.90
19000;DHT22;9633;50.980;13.850;2022-07-06T05:35:00;17.30;99.90
19000;DHT22;9633;50.980;13.850;2022-07-06T05:36:53;17.10;99.90
19000;DHT22;9633;50.980;13.850;2022-07-06T05:38:26;17.10;99.90
19000;DHT22;9633;50.980;13.850;2022-07-06T05:40:00;17.10;99.90
19000;DHT22;9633;50.980;13.850;2022-07-06T05:41:33;17.20;99.90
19000;DHT22;9633;50.980;13.850;2022-07-06T05:43:07;17.20;99.90
19000;DHT22;9633;50.980;13.850;2022-07-06T05:44:40;17.30;99.90
19000;DHT22;9633;50.980;13.850;2022-07-06T05:46:13;17.10;99.90
19000;DHT22;9633;50.980;13.850;2022-07-06T05:47:48;17.00;99.90
19000;DHT22;9633;50.980;13.850;2022-07-06T05:49:40;16.70;99.90
19000;DHT22;9633;50.980;13.850;2022-07-06T05:51:30;16.70;99.90
19000;DHT22;9633;50.980;13.850;2022-07-06T05:53:05;16.70;99.90
19000;DHT22;9633;50.980;13.850;2022-07-06T05:54:48;17.00;99.90
19000;DHT22;9633;50.980;13.850;2022-07-06T05:56:22;17.50;99.90
19000;DHT22;9633;50.980;13.850;2022-07-06T05:57:57;18.40;99.90
19000;DHT22;9633;50.980;13.850;2022-07-06T05:59:31;18.60;99.90
19000;DHT22;9633;50.980;13.850;2022-07-06T06:01:04;19.30;99.90
19000;DHT22;9633;50.980;13.850;2022-07-06T06:02:41;19.30;99.90
19000;DHT22;9633;50.980;13.850;2022-07-06T06:04:20;18.50;99.90
19000;DHT22;9633;50.980;13.850;2022-07-06T06:05:53;18.00;99.90
19000;DHT22;9633;50.980;13.850;2022-07-06T06:07:28;18.70;99.90
19000;DHT22;9633;50.980;13.850;2022-07-06T06:09:01;19.30;99.90
19000;DHT22;9633;50.980;13.850;2022-07-06T06:10:35;19.60;99.90
19000;DHT22;9633;50.980;13.850;2022-07-06T06:12:12;20.20;99.90
19000;DHT22;9633;50.980;13.850;2022-07-06T06:13:45;20.50;99.90
19000;DHT22;9633;50.980;13.850;2022-07-06T06:15:19;19.50;99.90
19000;DHT22;9633;50.980;13.850;2022-07-06T06:16:52;20.00;99.90
19000;DHT22;9633;50.980;13.850;2022-07-06T06:18:26;20.60;99.90
19000;DHT22;9633;50.980;13.850;2022-07-06T06:20:02;20.60;99.90
19000;DHT22;9633;50.980;13.850;2022-07-06T06:21:35;20.70;99.90
19000;DHT22;9633;50.980;13.850;2022-07-06T06:23:08;20.10;99.90
19000;DHT22;9633;50.980;13.850;2022-07-06T06:24:42;19.90;99.90
19000;DHT22;9633;50.980;13.850;2022-07-06T06:26:15;20.10;99.90
19000;DHT22;9633;50.980;13.850;2022-07-06T06:27:48;20.50;99.90
19000;DHT22;9633;50.980;13.850;2022-07-06T06:29:21;20.40;99.90
19000;DHT22;9633;50.980;13.850;2022-07-06T06:30:54;21.80;99.90
19000;DHT22;9633;50.980;13.850;2022-07-06T06:32:27;21.90;53.80
19000;DHT22;9633;50.980;13.850;2022-07-06T06:34:01;20.50;99.90
19000;DHT22;9633;50.980;13.850;2022-07-06T06:35:36;19.90;98.90
19000;DHT22;9633;50.980;13.850;2022-07-06T06:37:09;20.10;77.20
19000;DHT22;9633;50.980;13.850;2022-07-06T06:38:42;20.90;59.40
19000;DHT22;9633;50.980;13.850;2022-07-06T06:40:15;20.70;63.10
19000;DHT22;9633;50.980;13.850;2022-07-06T06:41:49;20.00;81.40
19000;DHT22;9633;50.980;13.850;2022-07-06T06:43:22;19.90;76.40
19000;DHT22;9633;50.980;13.850;2022-07-06T06:45:10;19.20;88.90
19000;DHT22;9633;50.980;13.850;2022-07-06T06:46:43;19.40;1.00
19000;DHT22;9633;50.980;13.850;2022-07-06T06:48:17;19.60;96.90
19000;DHT22;9633;50.980;13.850;2022-07-06T06:49:50;19.50;91.70
19000;DHT22;9633;50.980;13.850;2022-07-06T06:51:25;19.60;81.60
19000;DHT22;9633;50.980;13.850;2022-07-06T06:52:58;19.50;94.40
19000;DHT22;9633;50.980;13.850;2022-07-06T06:54:32;19.40;91.80
19000;DHT22;9633;50.980;13.850;2022-07-06T06:56:05;20.50;93.50
19000;DHT22;9633;50.980;13.850;2022-07-06T06:57:38;21.80;74.20
19000;DHT22;9633;50.980;13.850;2022-07-06T06:59:12;21.70;74.90
19000;DHT22;9633;50.980;13.850;2022-07-06T07:00:48;21.10;77.50
19000;DHT22;9633;50.980;13.850;2022-07-06T07:02:22;20.90;76.80
19000;DHT22;9633;50.980;13.850;2022-07-06T07:03:56;21.30;75.30
19000;DHT22;9633;50.980;13.850;2022-07-06T07:05:29;21.80;70.00
19000;DHT22;9633;50.980;13.850;2022-07-06T07:07:08;21.20;68.50
19000;DHT22;9633;50.980;13.850;2022-07-06T07:08:41;21.00;67.80
19000;DHT22;9633;50.980;13.850;2022-07-06T07:10:15;21.00;64.10
19000;DHT22;9633;50.980;13.850;2022-07-06T07:11:48;20.60;68.50
19000;DHT22;9633;50.980;13.850;2022-07-06T07:13:21;21.70;63.70
19000;DHT22;9633;50.980;13.850;2022-07-06T07:14:54;22.20;69.90
19000;DHT22;9633;50.980;13.850;2022-07-06T07:16:28;22.50;56.80
19000;DHT22;9633;50.980;13.850;2022-07-06T07:18:01;21.20;57.80
19000;DHT22;9633;50.980;13.850;2022-07-06T07:19:34;20.70;59.00
19000;DHT22;9633;50.980;13.850;2022-07-06T07:21:08;21.70;63.80
19000;DHT22;9633;50.980;13.850;2022-07-06T07:22:42;23.00;54.80
19000;DHT22;9633;50.980;13.850;2022-07-06T07:24:15;23.10;66.00
19000;DHT22;9633;50.980;13.850;2022-07-06T07:25:49;21.30;61.80
19000;DHT22;9633;50.980;13.850;2022-07-06T07:27:22;21.00;61.40
19000;DHT22;9633;50.980;13.850;2022-07-06T07:28:55;21.10;72.10
19000;DHT22;9633;50.980;13.850;2022-07-06T07:30:28;22.00;67.30
19000;DHT22;9633;50.980;13.850;2022-07-06T07:32:02;22.10;76.90
19000;DHT22;9633;50.980;13.850;2022-07-06T07:33:35;22.30;67.20
19000;DHT22;9633;50.980;13.850;2022-07-06T07:35:08;21.70;64.90
19000;DHT22;9633;50.980;13.850;2022-07-06T07:36:42;23.30;72.10
19000;DHT22;9633;50.980;13.850;2022-07-06T07:38:16;23.10;77.20
19000;DHT22;9633;50.980;13.850;2022-07-06T07:39:49;22.10;79.20
19000;DHT22;9633;50.980;13.850;2022-07-06T07:41:23;22.30;75.00
19000;DHT22;9633;50.980;13.850;2022-07-06T07:42:56;20.90;74.40
19000;DHT22;9633;50.980;13.850;2022-07-06T07:44:29;20.90;79.70
19000;DHT22;9633;50.980;13.850;2022-07-06T07:46:02;21.20;70.80
19000;DHT22;9633;50.980;13.850;2022-07-06T07:47:36;20.30;76.80
19000;DHT22;9633;50.980;13.850;2022-07-06T07:49:09;20.20;80.00
19000;DHT22;9633;50.980;13.850;2022-07-06T07:50:48;19.70;96.90
19000;DHT22;9633;50.980;13.850;2022-07-06T07:52:21;19.60;99.90
19000;DHT22;9633;50.980;13.850;2022-07-06T07:53:56;19.80;99.90
19000;DHT22;9633;50.980;13.850;2022-07-06T07:55:29;19.90;98.30
19000;DHT22;9633;50.980;13.850;2022-07-06T07:57:12;19.90;91.90
19000;DHT22;9633;50.980;13.850;2022-07-06T07:58:45;20.10;96.60
19000;DHT22;9633;50.980;13.850;2022-07-06T08:00:23;20.10;92.70
19000;DHT22;9633;50.980;13.850;2022-07-06T08:01:59;20.20;89.10
19000;DHT22;9633;50.980;13.850;2022-07-06T08:03:32;20.10;86.10
19000;DHT22;9633;50.980;13.850;2022-07-06T08:05:06;20.20;88.60
19000;DHT22;9633;50.980;13.850;2022-07-06T08:06:39;19.70;90.20
19000;DHT22;9633;50.980;13.850;2022-07-06T08:08:13;19.50;95.70
19000;DHT22;9633;50.980;13.850;2022-07-06T08:09:47;19.60;94.00
19000;DHT22;9633;50.980;13.850;2022-07-06T08:11:20;19.60;90.10
19000;DHT22;9633;50.980;13.850;2022-07-06T08:12:54;19.20;88.90
19000;DHT22;9633;50.980;13.850;2022-07-06T08:14:27;19.30;90.90
19000;DHT22;9633;50.980;13.850;2022-07-06T08:16:00;19.40;83.20
19000;DHT22;9633;50.980;13.850;2022-07-06T08:17:33;19.60;97.50
19000;DHT22;9633;50.980;13.850;2022-07-06T08:19:07;19.80;83.10
19000;DHT22;9633;50.980;13.850;2022-07-06T08:20:42;21.50;85.30
19000;DHT22;9633;50.980;13.850;2022-07-06T08:22:35;22.30;72.60
19000;DHT22;9633;50.980;13.850;2022-07-06T08:24:09;21.30;75.80
19000;DHT22;9633;50.980;13.850;2022-07-06T08:25:43;21.20;75.90
19000;DHT22;9633;50.980;13.850;2022-07-06T08:27:17;21.40;72.60
19000;DHT22;9633;50.980;13.850;2022-07-06T08:28:50;21.80;77.80
19000;DHT22;9633;50.980;13.850;2022-07-06T08:30:23;21.90;77.20
19000;DHT22;9633;50.980;13.850;2022-07-06T08:31:57;21.50;81.60
19000;DHT22;9633;50.980;13.850;2022-07-06T08:33:43;22.30;79.40
19000;DHT22;9633;50.980;13.850;2022-07-06T08:35:16;21.20;82.10
19000;DHT22;9633;50.980;13.850;2022-07-06T08:36:50;21.10;77.80
19000;DHT22;9633;50.980;13.850;2022-07-06T08:38:23;21.50;78.70
19000;DHT22;9633;50.980;13.850;2022-07-06T08:39:57;21.50;79.00
19000;DHT22;9633;50.980;13.850;2022-07-06T08:41:31;21.70;78.90
19000;DHT22;9633;50.980;13.850;2022-07-06T08:43:05;21.10;78.60
19000;DHT22;9633;50.980;13.850;2022-07-06T08:44:38;20.70;81.70
19000;DHT22;9633;50.980;13.850;2022-07-06T08:46:13;20.60;80.60
19000;DHT22;9633;50.980;13.850;2022-07-06T08:47:49;20.30;80.00
19000;DHT22;9633;50.980;13.850;2022-07-06T08:49:22;20.10;78.40
19000;DHT22;9633;50.980;13.850;2022-07-06T08:50:57;19.90;77.30
19000;DHT22;9633;50.980;13.850;2022-07-06T08:52:31;20.00;77.30
19000;DHT22;9633;50.980;13.850;2022-07-06T08:54:04;20.20;75.50
19000;DHT22;9633;50.980;13.850;2022-07-06T08:55:38;20.20;80.90
19000;DHT22;9633;50.980;13.850;2022-07-06T08:57:14;20.50;79.30
19000;DHT22;9633;50.980;13.850;2022-07-06T08:58:48;20.40;75.00
19000;DHT22;9633;50.980;13.850;2022-07-06T09:00:21;20.40;79.60
19000;DHT22;9633;50.980;13.850;2022-07-06T09:01:55;20.50;77.00
19000;DHT22;9633;50.980;13.850;2022-07-06T09:03:29;20.40;78.70
19000;DHT22;9633;50.980;13.850;2022-07-06T09:05:03;20.70;78.70
19000;DHT22;9633;50.980;13.850;2022-07-06T09:06:37;21.10;80.50
19000;DHT22;9633;50.980;13.850;2022-07-06T09:08:14;21.70;84.30
19000;DHT22;9633;50.980;13.850;2022-07-06T09:09:49;21.90;91.10
19000;DHT22;9633;50.980;13.850;2022-07-06T09:11:24;22.10;92.90
19000;DHT22;9633;50.980;13.850;2022-07-06T09:13:07;22.00;93.50
19000;DHT22;9633;50.980;13.850;2022-07-06T09:14:41;21.20;95.80
19000;DHT22;9633;50.980;13.850;2022-07-06T09:16:15;20.70;96.40
19000;DHT22;9633;50.980;13.850;2022-07-06T09:18:09;21.20;95.60
19000;DHT22;9633;50.980;13.850;2022-07-06T09:19:45;21.40;95.20
19000;DHT22;9633;50.980;13.850;2022-07-06T09:21:23;21.80;95.40
19000;DHT22;9633;50.980;13.850;2022-07-06T09:23:00;21.30;94.10
19000;DHT22;9633;50.980;13.850;2022-07-06T09:24:41;22.00;95.80
19000;DHT22;9633;50.980;13.850;2022-07-06T09:26:15;21.90;96.50
19000;DHT22;9633;50.980;13.850;2022-07-06T09:27:48;22.60;96.40
19000;DHT22;9633;50.980;13.850;2022-07-06T09:29:28;23.00;97.30
19000;DHT22;9633;50.980;13.850;2022-07-06T09:31:07;22.10;98.40
19000;DHT22;9633;50.980;13.850;2022-07-06T09:32:48;21.50;98.40
19000;DHT22;9633;50.980;13.850;2022-07-06T09:34:22;21.20;98.00
19000;DHT22;9633;50.980;13.850;2022-07-06T09:35:55;20.80;98.50
19000;DHT22;9633;50.980;13.850;2022-07-06T09:37:32;21.10;99.40
19000;DHT22;9633;50.980;13.850;2022-07-06T09:39:24;21.80;98.60
19000;DHT22;9633;50.980;13.850;2022-07-06T09:40:57;21.60;99.80
19000;DHT22;9633;50.980;13.850;2022-07-06T09:42:32;21.70;99.00
19000;DHT22;9633;50.980;13.850;2022-07-06T09:44:05;20.90;99.10
19000;DHT22;9633;50.980;13.850;2022-07-06T09:45:40;20.50;98.80
19000;DHT22;9633;50.980;13.850;2022-07-06T09:47:14;20.60;98.70
19000;DHT22;9633;50.980;13.850;2022-07-06T09:48:47;20.30;97.80
19000;DHT22;9633;50.980;13.850;2022-07-06T09:50:20;20.30;97.60
19000;DHT22;9633;50.980;13.850;2022-07-06T09:51:55;20.30;97.20
19000;DHT22;9633;50.980;13.850;2022-07-06T09:53:29;21.20;97.80
19000;DHT22;9633;50.980;13.850;2022-07-06T09:55:06;21.30;97.40
19000;DHT22;9633;50.980;13.850;2022-07-06T09:56:49;20.70;97.30